Glyndon, Maryland
Current Conditions -  °F | °C
As of 5:40 PM on Sunday 21 Dec 2014 (Local Time) from KDMW Reporting Station
Scattered Clouds Scattered Clouds  
Wind Chill: 32°   Ceiling: Unl
Heat Index: 32°   Visibility: 10mi
Dew Point: 21°   Wind: 3mph
Humidity: 64%   Direction: 60°ENE
Pressure: 30.28"   Gusts: NA
Location:  39.48°N, 76.82°W
Report Text: KDMW 212240Z AUTO 06003KT 10SM SCT085 00/M06 A3028 RMK AO2
Loading
Personal Weather Stations






























Interactive Weather Map New forecast layout! Learn more

10-Day Weather Forecast

Advertisements
Track Severe Weather on mobile